Time;durP1;ratioP1;P1;durP2;ratioP2;P2;SDS_P1;SDS_P2;PMS_P1;PMS_P2;Temp;Humidity;BMP_temperature;BMP_pressure;BME280_temperature;BME280_humidity;BME280_pressure;Samples;Min_cycle;Max_cycle;Signal;HPM_P1;HPM_P2
2023/08/14 00:02:22;;;;;;;11.30;7.78;;;;;;;14.86;100.00;101582.13;4937848;29;20094;-80
2023/08/14 00:04:47;;;;;;;10.50;8.00;;;;;;;14.93;100.00;101590.31;4937707;29;20064;-79
2023/08/14 00:07:12;;;;;;;10.52;7.63;;;;;;;14.91;100.00;101592.22;4936236;29;20093;-80
2023/08/14 00:09:38;;;;;;;10.52;7.40;;;;;;;14.85;100.00;101590.03;4937886;29;20040;-79
2023/08/14 00:12:03;;;;;;;9.75;8.07;;;;;;;14.71;100.00;101575.38;4934261;29;20067;-78
2023/08/14 00:14:29;;;;;;;9.57;7.50;;;;;;;14.84;100.00;101596.97;4918535;29;20079;-79
2023/08/14 00:16:54;;;;;;;10.02;8.15;;;;;;;14.82;100.00;101592.84;4918580;29;20159;-79
2023/08/14 00:19:19;;;;;;;10.93;8.10;;;;;;;14.68;100.00;101578.19;4918695;29;20107;-80
2023/08/14 00:21:44;;;;;;;11.15;8.00;;;;;;;14.58;100.00;101556.34;4918687;29;20039;-80
2023/08/14 00:24:10;;;;;;;10.45;8.43;;;;;;;14.76;100.00;101588.06;4918794;29;20438;-79
2023/08/14 00:26:35;;;;;;;10.93;8.50;;;;;;;14.75;100.00;101586.38;4918621;29;20084;-80
2023/08/14 00:29:00;;;;;;;9.70;8.15;;;;;;;14.72;100.00;101591.81;4918496;29;20042;-80
2023/08/14 00:31:26;;;;;;;10.68;8.73;;;;;;;14.68;100.00;101578.19;4918297;29;20028;-80
2023/08/14 00:33:52;;;;;;;11.02;8.48;;;;;;;14.60;100.00;101570.91;4918473;29;20043;-80
2023/08/14 00:36:17;;;;;;;10.20;8.55;;;;;;;14.56;100.00;101571.22;4932707;29;20043;-80
2023/08/14 00:38:43;;;;;;;12.40;8.88;;;;;;;14.62;100.00;101576.81;4918419;29;20512;-80
2023/08/14 00:41:08;;;;;;;10.18;8.48;;;;;;;14.38;100.00;101552.47;4918496;29;20039;-79
2023/08/14 00:43:33;;;;;;;11.88;8.85;;;;;;;14.45;100.00;101560.69;4918154;29;20028;-80
2023/08/14 00:46:00;;;;;;;11.18;9.25;;;;;;;14.35;100.00;101545.72;4918157;29;20024;-79
2023/08/14 00:48:26;;;;;;;11.88;9.13;;;;;;;14.40;100.00;101558.41;4917790;29;20064;-80
2023/08/14 00:50:55;;;;;;;12.02;8.77;;;;;;;14.37;100.00;101558.63;4918136;29;20079;-80
2023/08/14 00:53:22;;;;;;;10.13;8.48;;;;;;;14.54;100.00;101584.31;4918152;29;20402;-80
2023/08/14 00:55:47;;;;;;;12.30;9.10;;;;;;;14.47;100.00;101570.09;4918186;29;20435;-80
2023/08/14 00:58:13;;;;;;;10.75;8.90;;;;;;;14.46;100.00;101575.38;4916240;29;20044;-79
2023/08/14 01:00:40;;;;;;;11.35;8.50;;;;;;;14.38;100.00;101560.28;4917877;29;20111;-79
2023/08/14 01:03:06;;;;;;;11.45;8.95;;;;;;;14.31;100.00;101556.41;4917833;29;20107;-80
2023/08/14 01:05:33;;;;;;;12.45;8.85;;;;;;;14.42;100.00;101574.72;4917682;29;20493;-80
2023/08/14 01:07:58;;;;;;;11.57;8.45;;;;;;;14.39;100.00;101572.34;4917954;29;20032;-80
2023/08/14 01:10:30;;;;;;;10.93;8.55;;;;;;;14.27;100.00;101557.56;4917916;29;20536;-80
2023/08/14 01:13:06;;;;;;;10.05;8.82;;;;;;;14.33;100.00;101573.56;4917633;29;20452;-79
2023/08/14 01:15:39;;;;;;;11.50;8.88;;;;;;;14.20;100.00;101551.09;4917475;29;20035;-80
2023/08/14 01:18:05;;;;;;;10.77;8.25;;;;;;;14.30;100.00;101571.19;4917779;29;20119;-80
2023/08/14 01:20:35;;;;;;;10.75;8.30;;;;;;;14.29;100.00;101563.50;4917615;29;20028;-80
2023/08/14 01:23:40;;;;;;;10.60;9.50;;;;;;;14.23;100.00;101556.09;4917659;29;20130;-80
2023/08/14 01:26:07;;;;;;;11.25;9.10;;;;;;;14.11;100.00;101538.72;4859437;29;20045;-80
2023/08/14 01:28:32;;;;;;;11.32;9.35;;;;;;;14.14;100.00;101541.13;4858729;29;20053;-80
2023/08/14 01:30:58;;;;;;;9.57;8.57;;;;;;;14.17;100.00;101549.56;4859070;29;20037;-79
2023/08/14 01:33:23;;;;;;;10.88;9.32;;;;;;;14.14;100.00;101549.75;4859060;29;20025;-79
2023/08/14 01:36:00;;;;;;;10.45;9.00;;;;;;;14.06;100.00;101541.66;4859388;29;20049;-79
2023/08/14 01:39:04;;;;;;;10.85;8.50;;;;;;;13.88;100.00;101504.75;4859160;29;20464;-79
2023/08/14 01:41:46;;;;;;;9.77;8.77;;;;;;;13.89;100.00;101515.97;4858996;29;20041;-80
2023/08/14 01:44:16;;;;;;;9.23;8.25;;;;;;;14.07;100.00;101546.72;4858960;29;20100;-79
2023/08/14 01:46:43;;;;;;;10.32;8.32;;;;;;;14.00;100.00;101540.28;4858789;29;20124;-79
2023/08/14 01:49:13;;;;;;;9.75;7.78;;;;;;;14.01;100.00;101541.94;4858743;29;20530;-79
2023/08/14 01:51:39;;;;;;;10.95;7.63;;;;;;;13.84;100.00;101505.84;4858983;29;20041;-79
2023/08/14 01:54:05;;;;;;;8.77;7.10;;;;;;;13.79;100.00;101500.16;4859014;29;20523;-79
2023/08/14 01:56:30;;;;;;;7.70;6.90;;;;;;;13.98;100.00;101521.38;4858429;29;20068;-80
2023/08/14 01:58:55;;;;;;;9.05;7.20;;;;;;;13.96;100.00;101528.44;4858749;29;20037;-80
2023/08/14 02:01:21;;;;;;;10.63;7.65;;;;;;;13.77;100.00;101495.06;4882787;29;20036;-79
2023/08/14 02:03:46;;;;;;;9.75;7.47;;;;;;;13.85;100.00;101514.47;4916596;29;20031;-80
2023/08/14 02:06:11;;;;;;;10.38;7.95;;;;;;;13.77;100.00;101499.44;4916855;29;20095;-80
2023/08/14 02:08:37;;;;;;;9.80;8.00;;;;;;;13.78;100.00;101508.88;4916886;29;20028;-80
2023/08/14 02:11:09;;;;;;;11.18;8.07;;;;;;;13.80;100.00;101506.19;4916680;29;20059;-80
2023/08/14 02:13:34;;;;;;;10.35;8.05;;;;;;;13.60;100.00;101486.72;4916696;29;20031;-79
2023/08/14 02:16:00;;;;;;;10.75;9.38;;;;;;;13.72;100.00;101512.69;4916531;29;20024;-80
2023/08/14 02:18:25;;;;;;;10.27;9.18;;;;;;;13.72;100.00;101517.06;4915838;29;20028;-80
2023/08/14 02:20:53;;;;;;;12.63;10.18;;;;;;;13.68;100.00;101513.00;4915256;29;20075;-80
2023/08/14 02:23:18;;;;;;;11.90;9.38;;;;;;;13.41;100.00;101467.13;4916724;29;20112;-78
2023/08/14 02:25:44;;;;;;;12.60;9.60;;;;;;;13.68;100.00;101511.25;4916497;29;20111;-80
2023/08/14 02:28:10;;;;;;;11.50;9.43;;;;;;;13.44;100.00;101474.72;4916533;29;20028;-80
2023/08/14 02:30:37;;;;;;;13.23;9.93;;;;;;;13.63;100.00;101504.66;4931181;29;20364;-80
2023/08/14 02:33:03;;;;;;;12.23;10.13;;;;;;;13.43;100.00;101480.00;4916213;29;20055;-80
2023/08/14 02:35:28;;;;;;;12.60;10.45;;;;;;;13.59;100.00;101504.03;4916291;29;20036;-80
2023/08/14 02:37:53;;;;;;;13.30;11.65;;;;;;;13.57;100.00;101498.13;4916366;29;20111;-80
2023/08/14 02:40:19;;;;;;;13.27;10.30;;;;;;;13.36;100.00;101460.56;4916413;29;20032;-80
2023/08/14 02:42:44;;;;;;;12.85;11.05;;;;;;;13.51;100.00;101489.91;4916253;29;20032;-79
2023/08/14 02:45:09;;;;;;;12.90;11.45;;;;;;;13.54;100.00;101494.88;4916324;29;20052;-79
2023/08/14 02:47:35;;;;;;;13.05;10.10;;;;;;;13.50;100.00;101496.84;4914481;29;20072;-79
2023/08/14 02:50:00;;;;;;;13.18;10.40;;;;;;;13.50;100.00;101489.06;4916358;29;20029;-79
2023/08/14 02:52:25;;;;;;;11.82;9.80;;;;;;;13.25;100.00;101455.25;4916296;29;20028;-80
2023/08/14 02:54:51;;;;;;;13.65;10.93;;;;;;;13.28;100.00;101453.31;4915999;29;20028;-80
2023/08/14 02:57:16;;;;;;;13.38;10.40;;;;;;;13.39;100.00;101479.38;4914654;29;20123;-80
2023/08/14 02:59:42;;;;;;;13.45;10.52;;;;;;;13.38;100.00;101479.50;4930525;29;20147;-80
2023/08/14 03:02:07;;;;;;;12.25;10.23;;;;;;;13.41;100.00;101485.31;4916397;29;20028;-80
2023/08/14 03:04:32;;;;;;;13.40;11.15;;;;;;;13.26;100.00;101451.72;4916058;29;20099;-79
2023/08/14 03:06:58;;;;;;;13.30;10.55;;;;;;;13.14;100.00;101440.34;4914606;29;20033;-79
2023/08/14 03:09:23;;;;;;;12.63;10.13;;;;;;;13.31;100.00;101479.03;4916168;29;20528;-79
2023/08/14 03:11:48;;;;;;;11.77;9.90;;;;;;;13.32;100.00;101491.06;4916246;29;20483;-79
2023/08/14 03:14:14;;;;;;;10.65;9.45;;;;;;;13.24;100.00;101479.53;4916192;29;20043;-79
2023/08/14 03:16:39;;;;;;;13.15;10.55;;;;;;;13.25;100.00;101479.41;4916132;29;20032;-80
2023/08/14 03:19:04;;;;;;;12.90;10.30;;;;;;;13.20;100.00;101486.69;4915723;29;20468;-79
2023/08/14 03:21:30;;;;;;;14.20;10.95;;;;;;;13.25;100.00;101497.56;4915721;29;20024;-79
2023/08/14 03:23:55;;;;;;;15.70;10.98;;;;;;;13.10;100.00;101482.97;4930090;29;20095;-79
2023/08/14 03:26:20;;;;;;;12.52;10.98;;;;;;;12.95;100.00;101448.47;4916048;29;20028;-79
2023/08/14 03:28:46;;;;;;;13.93;11.75;;;;;;;13.10;100.00;101480.38;4916393;29;20034;-79
2023/08/14 03:31:12;;;;;;;16.60;12.45;;;;;;;12.98;100.00;101468.16;4919581;29;20070;-79
2023/08/14 03:33:38;;;;;;;15.93;12.73;;;;;;;13.08;100.00;101474.47;4919391;29;20075;-79
2023/08/14 03:36:03;;;;;;;14.75;12.75;;;;;;;13.14;100.00;101484.44;4919216;29;20478;-79
2023/08/14 03:38:30;;;;;;;18.95;12.88;;;;;;;13.18;100.00;101491.94;4919367;29;20036;-79
2023/08/14 03:40:56;;;;;;;15.48;12.43;;;;;;;13.15;100.00;101484.31;4919217;29;20028;-79
2023/08/14 03:43:22;;;;;;;16.05;12.38;;;;;;;13.12;100.00;101486.28;4919399;29;20119;-79
2023/08/14 03:45:47;;;;;;;16.25;12.20;;;;;;;13.09;100.00;101478.72;4919180;29;20059;-80
2023/08/14 03:48:12;;;;;;;16.98;12.43;;;;;;;13.14;100.00;101494.81;4919193;29;20040;-79
2023/08/14 03:50:37;;;;;;;18.23;12.90;;;;;;;13.01;100.00;101468.81;4917235;29;20383;-79
2023/08/14 03:53:03;;;;;;;18.55;14.23;;;;;;;13.15;100.00;101491.28;4918834;29;20489;-79
2023/08/14 03:55:28;;;;;;;14.85;13.05;;;;;;;13.15;100.00;101496.47;4919086;29;20035;-79
2023/08/14 03:57:56;;;;;;;18.10;13.10;;;;;;;13.11;100.00;101501.03;4934447;29;20035;-79
2023/08/14 04:00:21;;;;;;;15.80;13.18;;;;;;;13.07;100.00;101491.75;4920531;29;20043;-79
2023/08/14 04:02:47;;;;;;;18.58;14.00;;;;;;;13.06;100.00;101484.91;4938035;29;20485;-79
2023/08/14 04:05:13;;;;;;;13.98;12.52;;;;;;;13.04;100.00;101486.75;4937847;29;20513;-77
2023/08/14 04:07:38;;;;;;;14.15;12.10;;;;;;;13.09;100.00;101496.88;4937811;29;20106;-79
2023/08/14 04:10:04;;;;;;;16.40;13.95;;;;;;;13.10;100.00;101493.34;4937334;29;20118;-79
2023/08/14 04:12:31;;;;;;;15.95;12.88;;;;;;;12.92;100.00;101459.03;4937921;29;20071;-78
2023/08/14 04:15:12;;;;;;;16.45;13.15;;;;;;;13.10;100.00;101483.81;4937638;29;20099;-79
2023/08/14 04:17:38;;;;;;;15.13;12.65;;;;;;;13.14;100.00;101485.25;4937547;29;20035;-77
2023/08/14 04:20:03;;;;;;;15.55;12.80;;;;;;;13.05;100.00;101472.88;4937471;29;20087;-80
2023/08/14 04:22:29;;;;;;;13.77;12.00;;;;;;;13.10;100.00;101478.63;4937479;29;20024;-79
2023/08/14 04:24:54;;;;;;;15.93;12.82;;;;;;;13.08;100.00;101469.28;4937474;29;20028;-79
2023/08/14 04:27:19;;;;;;;15.50;12.93;;;;;;;13.07;100.00;101452.84;4937584;29;20106;-79
2023/08/14 04:29:45;;;;;;;16.10;12.38;;;;;;;13.10;100.00;101447.50;4937325;29;20434;-79
2023/08/14 04:32:11;;;;;;;15.20;13.25;;;;;;;13.00;100.00;101417.91;4937503;29;20414;-79
2023/08/14 04:34:36;;;;;;;15.40;12.52;;;;;;;13.35;100.00;101459.75;4937175;29;20405;-79
2023/08/14 04:37:01;;;;;;;14.32;12.85;;;;;;;13.27;100.00;101440.41;4937332;29;20059;-79
2023/08/14 04:39:27;;;;;;;13.77;12.27;;;;;;;13.32;100.00;101449.56;4937156;29;20141;-79
2023/08/14 04:41:52;;;;;;;15.02;11.18;;;;;;;13.37;100.00;101450.13;4936560;29;20537;-79
2023/08/14 04:44:17;;;;;;;13.15;11.75;;;;;;;13.55;100.00;101468.81;4935914;29;20043;-78
2023/08/14 04:46:44;;;;;;;15.45;11.18;;;;;;;13.61;100.00;101465.00;4937115;29;20027;-79
2023/08/14 04:49:09;;;;;;;16.33;12.68;;;;;;;13.67;100.00;101459.44;4937097;29;20035;-79
2023/08/14 04:51:34;;;;;;;14.02;11.63;;;;;;;13.74;100.00;101460.66;4936997;29;20020;-80
2023/08/14 04:54:00;;;;;;;14.50;12.23;;;;;;;13.81;100.00;101451.56;4936876;29;20038;-79
2023/08/14 04:56:25;;;;;;;15.32;12.05;;;;;;;13.82;100.00;101442.81;4936882;29;20047;-79
2023/08/14 04:58:52;;;;;;;14.77;12.05;;;;;;;13.85;100.00;101447.81;4936882;29;20028;-80
2023/08/14 05:01:17;;;;;;;15.88;11.95;;;;;;;13.82;100.00;101421.22;4936993;29;20035;-78
2023/08/14 05:03:43;;;;;;;13.73;11.23;;;;;;;14.04;100.00;101443.03;4936913;29;20477;-79
2023/08/14 05:06:08;;;;;;;13.50;11.77;;;;;;;14.13;100.00;101439.00;4936731;29;20047;-79
2023/08/14 05:08:34;;;;;;;16.20;11.35;;;;;;;14.21;100.00;101438.47;4936590;29;20043;-78
2023/08/14 05:10:59;;;;;;;14.25;11.95;;;;;;;14.31;100.00;101434.31;4936466;29;20034;-79
2023/08/14 05:13:24;;;;;;;16.55;12.27;;;;;;;14.31;100.00;101413.53;4936468;29;20036;-79
2023/08/14 05:15:51;;;;;;;13.85;12.30;;;;;;;14.44;100.00;101410.91;4936510;29;20023;-79
2023/08/14 05:18:17;;;;;;;14.48;12.15;;;;;;;14.76;100.00;101430.31;4936621;29;20363;-79
2023/08/14 05:20:46;;;;;;;14.77;13.18;;;;;;;14.88;100.00;101400.81;4936398;29;20031;-79
2023/08/14 05:23:12;;;;;;;13.18;11.75;;;;;;;15.12;100.00;101429.41;4936470;29;20422;-79
2023/08/14 05:25:38;;;;;;;13.93;11.95;;;;;;;15.29;100.00;101433.41;4936212;29;20030;-79
2023/08/14 05:28:04;;;;;;;14.50;12.10;;;;;;;15.28;100.00;101399.69;4936317;29;20031;-79
2023/08/14 05:30:30;;;;;;;15.43;11.82;;;;;;;15.60;100.00;101439.81;4936204;29;20043;-80
2023/08/14 05:32:55;;;;;;;15.45;11.95;;;;;;;15.64;100.00;101422.22;4936346;29;20039;-80
2023/08/14 05:35:23;;;;;;;17.17;13.38;;;;;;;15.73;100.00;101413.69;4935935;29;20019;-79
2023/08/14 05:37:52;;;;;;;19.67;12.40;;;;;;;15.77;100.00;101415.94;4918909;29;20467;-79
2023/08/14 05:40:19;;;;;;;17.05;13.20;;;;;;;15.90;100.00;101438.47;4936053;29;20079;-79
2023/08/14 05:42:48;;;;;;;17.60;13.77;;;;;;;15.86;100.00;101419.63;4936039;29;20102;-80
2023/08/14 05:45:13;;;;;;;18.25;14.30;;;;;;;15.98;100.00;101442.16;4931652;29;20119;-79
2023/08/14 05:47:39;;;;;;;16.05;13.95;;;;;;;15.91;100.00;101434.91;4934891;29;20126;-79
2023/08/14 05:50:04;;;;;;;16.77;13.48;;;;;;;16.07;100.00;101456.25;4935838;29;20074;-76
2023/08/14 05:52:30;;;;;;;16.58;14.05;;;;;;;16.09;100.00;101448.31;4934935;29;20139;-79
2023/08/14 05:54:55;;;;;;;17.10;13.77;;;;;;;16.05;100.00;101443.34;4935698;29;20035;-79
2023/08/14 05:57:20;;;;;;;16.50;14.27;;;;;;;16.09;100.00;101454.34;4923831;29;20131;-76
2023/08/14 05:59:46;;;;;;;17.48;14.45;;;;;;;15.92;100.00;101440.00;4900440;29;20024;-77
2023/08/14 06:02:11;;;;;;;16.70;12.95;;;;;;;16.10;100.00;101465.59;4917016;29;20020;-79
2023/08/14 06:04:37;;;;;;;16.17;13.40;;;;;;;16.18;100.00;101477.09;4916541;29;20482;-77
2023/08/14 06:07:03;;;;;;;13.75;12.32;;;;;;;16.31;100.00;101471.78;4916324;29;20070;-78
2023/08/14 06:09:28;;;;;;;13.57;11.45;;;;;;;16.44;100.00;101469.91;4916588;29;20490;-79
2023/08/14 06:11:53;;;;;;;13.30;9.82;;;;;;;16.59;100.00;101468.69;4916586;29;20066;-79
2023/08/14 06:14:19;;;;;;;13.00;10.60;;;;;;;16.77;100.00;101468.25;4916497;29;20074;-79
2023/08/14 06:16:44;;;;;;;13.20;10.38;;;;;;;16.97;100.00;101479.69;4916844;29;20057;-79
2023/08/14 06:19:09;;;;;;;12.30;9.45;;;;;;;17.20;100.00;101479.50;4916542;29;20047;-80
2023/08/14 06:21:35;;;;;;;13.20;10.65;;;;;;;17.43;100.00;101482.88;4899286;29;20031;-80
2023/08/14 06:24:00;;;;;;;12.63;8.27;;;;;;;17.65;100.00;101455.00;4916445;29;20176;-79
2023/08/14 06:26:26;;;;;;;11.38;9.10;;;;;;;17.84;100.00;101473.44;4916446;29;20133;-79
2023/08/14 06:28:51;;;;;;;13.25;10.75;;;;;;;17.86;100.00;101457.66;4916453;29;20031;-79
2023/08/14 06:31:16;;;;;;;13.80;10.75;;;;;;;18.25;100.00;101466.53;4916356;29;20032;-80
2023/08/14 06:33:44;;;;;;;14.52;11.57;;;;;;;19.36;100.00;101471.63;4916465;29;20028;-79
2023/08/14 06:36:10;;;;;;;15.88;11.68;;;;;;;21.26;96.89;101457.28;4916206;29;20479;-80
2023/08/14 06:38:35;;;;;;;22.85;11.30;;;;;;;22.91;86.52;101467.66;4916095;29;20119;-80
2023/08/14 06:41:00;;;;;;;19.83;10.52;;;;;;;24.23;78.45;101468.25;4916249;29;20075;-78
2023/08/14 06:43:25;;;;;;;16.30;9.73;;;;;;;24.97;73.61;101458.16;4916277;29;20039;-78
2023/08/14 06:45:51;;;;;;;19.60;9.07;;;;;;;25.77;69.62;101459.56;4916411;29;20028;-77
2023/08/14 06:48:16;;;;;;;17.92;9.05;;;;;;;26.07;66.92;101461.22;4899432;29;20036;-75
2023/08/14 06:50:44;;;;;;;12.43;7.45;;;;;;;26.37;64.43;101462.03;4916551;29;20036;-78
2023/08/14 06:53:09;;;;;;;11.77;7.22;;;;;;;25.96;63.99;101451.91;4916109;29;20024;-78
2023/08/14 06:55:35;;;;;;;12.88;7.47;;;;;;;25.38;66.05;101448.16;4946658;23;20260;-78
2023/08/14 06:58:00;;;;;;;13.73;7.60;;;;;;;24.52;68.50;101412.22;4898388;29;20058;-78
2023/08/14 07:00:26;;;;;;;12.00;6.57;;;;;;;24.39;71.38;101440.19;4916194;29;20539;-77
2023/08/14 07:02:51;;;;;;;18.08;6.68;;;;;;;24.77;69.92;101426.09;4914644;29;20134;-78
2023/08/14 07:05:17;;;;;;;12.30;7.20;;;;;;;25.84;66.78;101445.41;4919181;29;20075;-78
2023/08/14 07:07:42;;;;;;;11.80;6.78;;;;;;;26.58;62.58;101448.84;4919697;29;20040;-78
2023/08/14 07:10:08;;;;;;;10.32;7.15;;;;;;;27.05;59.79;101444.88;4919908;29;20088;-78
2023/08/14 07:12:33;;;;;;;11.02;6.53;;;;;;;27.60;57.29;101450.41;4919776;29;20028;-78
2023/08/14 07:15:00;;;;;;;10.27;5.50;;;;;;;27.65;56.58;101437.41;4919791;29;20040;-78
2023/08/14 07:17:26;;;;;;;13.73;6.40;;;;;;;26.51;58.74;101434.69;4919709;29;20434;-77
2023/08/14 07:19:51;;;;;;;9.38;5.72;;;;;;;25.26;64.49;101436.31;4902735;29;20028;-78
2023/08/14 07:22:17;;;;;;;11.90;6.28;;;;;;;24.27;67.83;101440.50;4919577;29;20314;-77
2023/08/14 07:24:43;;;;;;;11.73;6.78;;;;;;;23.54;71.88;101445.94;4919682;29;20032;-77
2023/08/14 07:27:09;;;;;;;10.10;6.57;;;;;;;22.92;75.68;101427.16;4919506;29;20034;-78
2023/08/14 07:29:34;;;;;;;12.30;6.20;;;;;;;22.39;78.15;101420.41;4919358;29;20110;-77
2023/08/14 07:31:59;;;;;;;9.75;6.32;;;;;;;22.06;79.48;101427.31;4919546;29;20035;-77
2023/08/14 07:34:24;;;;;;;10.77;7.63;;;;;;;21.75;81.76;101451.47;4919483;29;20039;-78
2023/08/14 07:36:50;;;;;;;9.65;6.43;;;;;;;21.70;83.25;101455.50;4919229;29;20071;-77
2023/08/14 07:39:15;;;;;;;12.70;7.80;;;;;;;21.56;84.59;101469.22;4919608;29;20028;-78
2023/08/14 07:41:40;;;;;;;11.55;8.50;;;;;;;21.28;84.43;101463.22;4919261;29;20047;-78
2023/08/14 07:44:06;;;;;;;12.18;6.95;;;;;;;21.03;86.35;101456.88;4919203;29;20402;-75
2023/08/14 07:46:31;;;;;;;10.55;7.03;;;;;;;21.07;88.10;101477.47;4918069;29;20051;-78
2023/08/14 07:48:56;;;;;;;14.05;7.25;;;;;;;21.07;88.43;101476.63;4919671;29;20091;-78
2023/08/14 07:51:22;;;;;;;13.18;7.15;;;;;;;20.92;87.07;101474.50;4918886;29;20047;-78
2023/08/14 07:53:47;;;;;;;11.35;6.22;;;;;;;20.72;88.11;101441.47;4918670;29;20054;-76
2023/08/14 07:56:12;;;;;;;13.50;7.95;;;;;;;20.80;89.23;101452.06;4901998;29;20501;-78
2023/08/14 07:58:39;;;;;;;10.57;6.90;;;;;;;20.82;89.07;101459.78;4918870;29;20526;-77
2023/08/14 08:01:05;;;;;;;10.13;5.53;;;;;;;20.86;90.01;101469.03;4918763;29;20070;-77
2023/08/14 08:03:30;;;;;;;11.48;6.47;;;;;;;20.68;87.96;101457.69;4901881;29;20071;-77
2023/08/14 08:05:56;;;;;;;14.10;7.20;;;;;;;20.70;88.09;101459.19;4918721;29;20039;-77
2023/08/14 08:08:21;;;;;;;11.55;6.25;;;;;;;20.67;90.19;101451.59;4918588;29;20036;-77
2023/08/14 08:10:46;;;;;;;11.95;6.10;;;;;;;20.75;90.65;101454.31;4918696;29;20430;-78
2023/08/14 08:13:12;;;;;;;13.88;7.07;;;;;;;20.83;89.35;101464.06;4918639;29;20096;-76
2023/08/14 08:15:37;;;;;;;10.98;6.32;;;;;;;20.77;89.24;101447.13;4917481;29;20028;-78
2023/08/14 08:18:03;;;;;;;10.55;6.15;;;;;;;20.85;88.29;101447.22;4918454;29;20106;-76
2023/08/14 08:20:28;;;;;;;12.23;5.78;;;;;;;20.97;89.20;101450.44;4918563;29;20024;-77
2023/08/14 08:22:53;;;;;;;10.77;4.55;;;;;;;20.90;86.45;101437.06;4918263;29;20031;-77
2023/08/14 08:25:19;;;;;;;12.48;4.57;;;;;;;20.96;87.21;101432.22;4918225;29;20526;-77
2023/08/14 08:27:44;;;;;;;10.85;4.93;;;;;;;21.07;87.03;101443.31;4918454;29;20043;-77
2023/08/14 08:30:10;;;;;;;9.00;3.55;;;;;;;21.10;85.02;101444.81;4918181;29;20028;-77
2023/08/14 08:32:37;;;;;;;12.10;4.50;;;;;;;21.07;86.62;101426.75;4918121;29;20024;-77
2023/08/14 08:35:02;;;;;;;8.85;3.67;;;;;;;21.23;85.50;101441.81;4918176;29;20082;-77
2023/08/14 08:37:28;;;;;;;8.15;3.15;;;;;;;21.27;83.57;101438.78;4918269;29;20452;-78
2023/08/14 08:39:53;;;;;;;8.55;3.13;;;;;;;20.94;82.05;101385.09;4918146;29;20100;-77
2023/08/14 08:42:18;;;;;;;6.93;3.10;;;;;;;21.35;83.67;101435.38;4918184;29;20418;-76
2023/08/14 08:44:45;;;;;;;7.38;2.92;;;;;;;21.45;86.79;101431.69;4917978;29;20056;-76
2023/08/14 08:47:15;;;;;;;6.75;2.53;;;;;;;21.46;80.13;101427.25;4917933;29;20080;-77
2023/08/14 08:49:41;;;;;;;6.80;2.60;;;;;;;21.42;81.26;101415.38;4918368;29;20035;-75
2023/08/14 08:52:07;;;;;;;7.70;2.78;;;;;;;21.44;79.97;101413.47;4918111;29;20021;-77
2023/08/14 08:54:33;;;;;;;5.10;2.00;;;;;;;21.58;78.06;101427.84;4917781;29;20028;-79
2023/08/14 08:56:59;;;;;;;6.13;2.22;;;;;;;21.65;81.22;101434.97;4917991;29;20032;-78
2023/08/14 08:59:26;;;;;;;5.53;2.33;;;;;;;21.72;79.32;101429.88;4917964;29;20036;-78
2023/08/14 09:01:52;;;;;;;5.03;2.40;;;;;;;21.82;78.46;101424.53;4917852;29;20047;-78
2023/08/14 09:04:17;;;;;;;7.28;2.30;;;;;;;21.80;75.86;101416.81;4918017;29;20056;-75
2023/08/14 09:06:42;;;;;;;6.32;2.00;;;;;;;21.91;77.74;101423.59;4917963;29;20075;-78
2023/08/14 09:09:11;;;;;;;5.70;1.98;;;;;;;21.93;75.75;101424.28;4900674;29;20049;-79
2023/08/14 09:11:36;;;;;;;8.15;2.13;;;;;;;21.97;72.20;101425.63;4917799;29;20024;-79
2023/08/14 09:14:02;;;;;;;7.85;2.05;;;;;;;22.05;75.57;101426.47;4917608;29;20115;-79
2023/08/14 09:16:28;;;;;;;7.57;1.85;;;;;;;21.91;73.52;101395.50;4917533;29;20114;-79
2023/08/14 09:19:00;;;;;;;6.03;1.83;;;;;;;22.12;75.18;101426.69;4917621;29;20096;-77
2023/08/14 09:21:26;;;;;;;5.72;1.83;;;;;;;22.16;72.16;101424.59;4917642;29;20024;-75
2023/08/14 09:23:52;;;;;;;5.72;2.00;;;;;;;22.20;73.54;101423.28;4917334;29;20030;-78
2023/08/14 09:26:18;;;;;;;9.90;2.50;;;;;;;22.14;73.44;101411.59;4917408;29;20107;-77
2023/08/14 09:28:44;;;;;;;8.10;2.10;;;;;;;22.15;73.09;101410.63;4917357;29;20039;-78
2023/08/14 09:31:12;;;;;;;6.97;2.05;;;;;;;22.31;74.73;101421.19;4917412;29;20036;-79
2023/08/14 09:33:42;;;;;;;5.30;1.63;;;;;;;22.38;71.96;101429.28;4917315;29;20460;-79
2023/08/14 09:36:08;;;;;;;9.30;1.80;;;;;;;22.43;73.06;101415.66;4917312;29;20038;-80
2023/08/14 09:38:33;;;;;;;7.93;2.05;;;;;;;22.62;74.07;101433.81;4917236;29;20032;-79
2023/08/14 09:41:00;;;;;;;5.85;1.55;;;;;;;22.71;68.68;101445.16;4917073;29;20039;-79
2023/08/14 09:43:27;;;;;;;5.25;1.73;;;;;;;22.55;69.99;101409.13;4917500;29;20031;-79
2023/08/14 09:45:55;;;;;;;6.38;1.90;;;;;;;22.75;69.32;101431.53;4917203;29;20020;-79
2023/08/14 09:48:21;;;;;;;4.82;1.90;;;;;;;22.49;68.29;101423.72;4917121;29;20039;-79
2023/08/14 09:50:51;;;;;;;5.00;1.88;;;;;;;22.46;66.44;101403.00;4917329;29;20031;-79
2023/08/14 09:53:18;;;;;;;9.30;2.10;;;;;;;22.53;65.57;101401.38;4917222;29;20495;-77
2023/08/14 09:55:43;;;;;;;4.80;1.60;;;;;;;22.93;67.96;101428.00;4916748;29;20044;-79
2023/08/14 09:58:09;;;;;;;5.40;1.67;;;;;;;22.93;67.72;101404.28;4916819;29;20505;-81
2023/08/14 10:00:37;;;;;;;4.97;1.88;;;;;;;23.15;65.69;101416.81;4916956;29;20040;-80
2023/08/14 10:03:03;;;;;;;4.68;1.60;;;;;;;23.27;65.56;101417.28;4916806;29;20155;-80
2023/08/14 10:05:30;;;;;;;7.03;1.73;;;;;;;23.39;66.25;101414.16;4916859;29;20032;-80
2023/08/14 10:07:56;;;;;;;4.88;1.70;;;;;;;23.46;65.54;101414.31;4916982;29;20063;-80
2023/08/14 10:10:24;;;;;;;3.13;1.30;;;;;;;23.47;62.66;101403.59;4916438;29;20053;-81
2023/08/14 10:12:54;;;;;;;6.28;1.60;;;;;;;23.54;66.45;101387.94;4916782;29;20055;-80
2023/08/14 10:15:27;;;;;;;5.57;1.63;;;;;;;23.54;59.86;101405.59;4916605;29;20471;-79
2023/08/14 10:17:57;;;;;;;5.70;1.70;;;;;;;23.46;60.23;101395.84;4916886;29;20028;-81
2023/08/14 10:20:24;;;;;;;5.00;1.70;;;;;;;23.48;60.03;101394.69;4916820;29;20028;-80
2023/08/14 10:22:52;;;;;;;5.38;1.40;;;;;;;23.29;58.54;101387.13;4915178;29;20035;-80
2023/08/14 10:25:19;;;;;;;4.68;1.50;;;;;;;23.24;59.82;101370.19;4900011;29;20474;-81
2023/08/14 10:27:45;;;;;;;6.07;1.75;;;;;;;23.38;59.68;101367.69;4916729;29;20042;-81
2023/08/14 10:30:11;;;;;;;5.93;1.90;;;;;;;23.30;60.73;101346.63;4916331;29;20032;-80
2023/08/14 10:32:37;;;;;;;6.07;2.15;;;;;;;23.45;60.90;101344.13;4916500;29;20028;-76
2023/08/14 10:35:04;;;;;;;5.28;1.77;;;;;;;23.46;59.31;101332.59;4916376;29;20039;-79
2023/08/14 10:37:42;;;;;;;5.28;1.80;;;;;;;23.59;58.68;101350.53;4916351;29;20386;-79
2023/08/14 10:40:18;;;;;;;5.93;1.98;;;;;;;23.78;63.26;101349.34;4915423;29;20099;-78
2023/08/14 10:42:51;;;;;;;5.95;1.65;;;;;;;23.85;59.07;101356.41;4916604;29;20032;-78
2023/08/14 10:45:18;;;;;;;4.93;1.27;;;;;;;23.86;56.45;101357.22;4916611;29;20035;-79
2023/08/14 10:47:44;;;;;;;6.30;1.83;;;;;;;23.89;57.81;101356.88;4916378;29;20083;-78
2023/08/14 10:50:22;;;;;;;6.70;1.58;;;;;;;23.75;59.00;101335.50;4916163;29;20035;-79
2023/08/14 10:52:49;;;;;;;4.97;1.48;;;;;;;23.86;58.01;101355.41;4916110;29;20043;-78
2023/08/14 10:55:17;;;;;;;7.68;1.88;;;;;;;24.02;61.42;101355.34;4915582;29;20072;-78
2023/08/14 10:57:44;;;;;;;5.65;1.50;;;;;;;24.08;57.15;101343.28;4916151;29;20100;-77
2023/08/14 11:00:20;;;;;;;5.20;1.90;;;;;;;24.13;58.44;101351.50;4916365;29;20028;-77
2023/08/14 11:02:50;;;;;;;6.28;1.73;;;;;;;24.13;57.92;101330.41;4916275;29;20046;-77
2023/08/14 11:05:17;;;;;;;6.22;1.70;;;;;;;24.26;57.38;101349.13;4916095;29;20052;-77
2023/08/14 11:07:56;;;;;;;4.90;1.63;;;;;;;24.34;60.00;101360.66;4915948;29;20146;-76
2023/08/14 11:10:26;;;;;;;7.07;1.70;;;;;;;24.44;55.93;101361.28;4915994;29;20068;-77